createdAt,value
2023-04-27T00:01:15.533Z,71.69
2023-04-27T00:03:43.176Z,71.75
2023-04-27T00:06:10.032Z,72.01
2023-04-27T00:08:37.046Z,71.97
2023-04-27T00:11:03.969Z,71.87
2023-04-27T00:13:30.957Z,71.92
2023-04-27T00:15:57.942Z,71.98
2023-04-27T00:18:24.624Z,71.88
2023-04-27T00:20:51.407Z,71.95
2023-04-27T00:23:18.027Z,71.96
2023-04-27T00:25:44.681Z,72.09
2023-04-27T00:28:11.491Z,72.44
2023-04-27T00:30:38.328Z,72.31
2023-04-27T00:33:04.865Z,72.12
2023-04-27T00:35:33.688Z,72.13
2023-04-27T00:38:00.379Z,71.90
2023-04-27T00:40:26.992Z,71.74
2023-04-27T00:42:53.666Z,72.01
2023-04-27T00:45:20.557Z,72.21
2023-04-27T00:47:47.451Z,72.00
2023-04-27T00:50:14.968Z,72.04
2023-04-27T00:52:42.172Z,72.05
2023-04-27T00:55:09.481Z,72.05
2023-04-27T00:57:36.237Z,72.25
2023-04-27T01:00:05.042Z,72.24
2023-04-27T01:02:31.797Z,72.08
2023-04-27T01:04:58.600Z,72.16
2023-04-27T01:07:26.730Z,72.52
2023-04-27T01:09:53.412Z,72.27
2023-04-27T01:12:20.166Z,72.43
2023-04-27T01:14:47.130Z,72.68
2023-04-27T01:17:14.210Z,72.64
2023-04-27T01:19:41.312Z,72.90
2023-04-27T01:22:08.062Z,73.49
2023-04-27T01:24:34.666Z,73.52
2023-04-27T01:27:01.744Z,73.63
2023-04-27T01:29:28.544Z,74.03
2023-04-27T01:31:55.096Z,73.89
2023-04-27T01:34:21.792Z,74.22
2023-04-27T01:36:48.829Z,74.21
2023-04-27T01:39:16.453Z,74.70
2023-04-27T01:41:43.714Z,75.08
2023-04-27T01:44:10.346Z,75.44
2023-04-27T01:46:37.159Z,75.49
2023-04-27T01:49:04.123Z,75.65
2023-04-27T01:51:31.059Z,75.72
2023-04-27T01:53:57.585Z,76.21
2023-04-27T01:56:24.430Z,76.00
2023-04-27T01:58:53.136Z,76.57
2023-04-27T02:01:19.627Z,76.75
2023-04-27T02:03:48.881Z,77.25
2023-04-27T02:06:15.707Z,77.51
2023-04-27T02:08:42.600Z,77.54
2023-04-27T02:11:09.595Z,77.45
2023-04-27T02:13:36.244Z,77.57
2023-04-27T02:16:05.030Z,77.99
2023-04-27T02:18:36.087Z,77.84
2023-04-27T02:21:08.611Z,77.84
2023-04-27T02:23:35.789Z,77.99
2023-04-27T02:26:02.664Z,78.04
2023-04-27T02:28:29.378Z,78.25
2023-04-27T02:30:56.518Z,78.28
2023-04-27T02:33:23.016Z,78.31
2023-04-27T02:35:49.693Z,78.63
2023-04-27T02:38:16.333Z,79.35
2023-04-27T02:40:43.396Z,79.36
2023-04-27T02:43:10.614Z,79.55
2023-04-27T02:45:38.452Z,79.54
2023-04-27T02:48:05.490Z,79.86
2023-04-27T02:50:32.179Z,79.89
2023-04-27T02:52:59.674Z,80.22
2023-04-27T02:55:27.574Z,80.38
2023-04-27T02:57:54.420Z,80.24
2023-04-27T03:00:21.180Z,80.38
2023-04-27T03:02:48.007Z,80.50
2023-04-27T03:05:14.971Z,80.70
2023-04-27T03:07:41.984Z,80.67
2023-04-27T03:10:09.015Z,80.70
2023-04-27T03:12:35.900Z,80.63
2023-04-27T03:15:03.086Z,80.73
2023-04-27T03:17:29.875Z,80.75
2023-04-27T03:19:56.746Z,80.72
2023-04-27T03:22:23.757Z,80.90
2023-04-27T03:24:50.560Z,80.77
2023-04-27T03:27:17.371Z,80.67
2023-04-27T03:29:44.220Z,80.83
2023-04-27T03:32:11.137Z,80.98
2023-04-27T03:34:37.997Z,81.17
2023-04-27T03:37:04.968Z,81.17
2023-04-27T03:39:31.810Z,80.94
2023-04-27T03:41:59.177Z,81.08
2023-04-27T03:44:26.024Z,81.01
2023-04-27T03:46:53.013Z,81.07
2023-04-27T03:49:19.570Z,81.00
2023-04-27T03:51:46.371Z,80.87
2023-04-27T03:54:13.256Z,81.02
2023-04-27T03:56:40.591Z,81.19
2023-04-27T03:59:07.324Z,81.40
2023-04-27T04:01:34.705Z,81.36
2023-04-27T04:04:01.648Z,81.50
2023-04-27T04:06:28.752Z,81.73
2023-04-27T04:08:55.476Z,81.91
2023-04-27T04:11:22.509Z,82.03
2023-04-27T04:13:49.431Z,81.98
2023-04-27T04:16:16.476Z,82.02
2023-04-27T04:18:43.211Z,82.35
2023-04-27T04:21:11.269Z,82.34
2023-04-27T04:23:38.176Z,82.53
2023-04-27T04:26:05.682Z,82.70
2023-04-27T04:28:32.493Z,82.88
2023-04-27T04:31:01.496Z,82.69
2023-04-27T04:33:28.404Z,82.93
2023-04-27T04:35:55.340Z,82.95
2023-04-27T04:38:23.384Z,83.05
2023-04-27T04:40:51.182Z,83.14
2023-04-27T04:43:18.184Z,83.27
2023-04-27T04:45:44.847Z,83.76
2023-04-27T04:48:11.695Z,83.76
2023-04-27T04:50:39.501Z,83.64
2023-04-27T04:53:06.680Z,83.43
2023-04-27T04:55:33.209Z,83.55
2023-04-27T04:58:00.670Z,83.14
2023-04-27T05:00:27.500Z,83.05
2023-04-27T05:02:54.426Z,82.87
2023-04-27T05:05:21.380Z,82.74
2023-04-27T05:07:47.801Z,82.93
2023-04-27T05:10:14.553Z,82.59
2023-04-27T05:12:41.361Z,82.48
2023-04-27T05:15:08.683Z,82.12
2023-04-27T05:17:36.128Z,82.21
2023-04-27T05:20:04.587Z,82.08
2023-04-27T05:22:31.325Z,81.98
2023-04-27T05:24:58.999Z,81.95
2023-04-27T05:27:25.696Z,81.79
2023-04-27T05:29:52.372Z,82.04
2023-04-27T05:32:19.078Z,81.78
2023-04-27T05:34:48.771Z,81.47
2023-04-27T05:37:16.161Z,80.66
2023-04-27T05:39:42.607Z,80.41
2023-04-27T05:42:09.214Z,80.20
2023-04-27T05:44:36.216Z,79.34
2023-04-27T05:47:02.787Z,78.85
2023-04-27T05:49:29.501Z,78.69
2023-04-27T05:51:56.302Z,78.34
2023-04-27T05:54:22.816Z,77.72
2023-04-27T05:56:50.336Z,77.36
2023-04-27T05:59:17.134Z,77.00
2023-04-27T06:01:43.639Z,76.58
2023-04-27T06:04:10.597Z,76.37
2023-04-27T06:06:37.320Z,75.55
2023-04-27T06:09:04.487Z,75.68
2023-04-27T06:11:31.226Z,75.11
2023-04-27T06:13:58.104Z,74.51
2023-04-27T06:16:24.855Z,74.16
2023-04-27T06:18:51.909Z,73.76
2023-04-27T06:21:18.782Z,72.98
2023-04-27T06:23:45.608Z,72.05
2023-04-27T06:26:12.290Z,71.55
2023-04-27T06:28:39.232Z,71.56
2023-04-27T06:31:06.301Z,71.15
2023-04-27T06:33:33.613Z,70.66
2023-04-27T06:36:02.326Z,70.64
2023-04-27T06:38:29.404Z,69.35
2023-04-27T06:40:56.293Z,69.63
2023-04-27T06:43:23.123Z,69.58
2023-04-27T06:45:49.792Z,69.13
2023-04-27T06:48:17.246Z,68.11
2023-04-27T06:50:44.112Z,67.57
2023-04-27T06:53:11.350Z,66.63
2023-04-27T06:55:38.952Z,66.28
2023-04-27T06:58:06.533Z,66.03
2023-04-27T07:00:33.269Z,65.58
2023-04-27T07:03:00.050Z,64.92
2023-04-27T07:05:27.265Z,64.64
2023-04-27T07:07:54.119Z,64.02
2023-04-27T07:10:21.477Z,63.09
2023-04-27T07:12:48.064Z,61.93
2023-04-27T07:15:15.065Z,61.90
2023-04-27T07:17:42.185Z,61.90
2023-04-27T07:20:09.395Z,61.77
2023-04-27T07:22:36.595Z,61.32
2023-04-27T07:25:05.048Z,60.74
2023-04-27T07:27:31.897Z,58.44
2023-04-27T07:29:58.882Z,58.63
2023-04-27T07:32:26.153Z,57.26
2023-04-27T07:34:55.161Z,57.48
2023-04-27T07:37:22.885Z,56.82
2023-04-27T07:39:50.621Z,56.97
2023-04-27T07:42:17.419Z,55.34
2023-04-27T07:44:44.273Z,53.72
2023-04-27T07:47:11.342Z,53.32
2023-04-27T07:49:38.338Z,54.76
2023-04-27T07:52:05.321Z,54.06
2023-04-27T07:54:32.335Z,53.86
2023-04-27T07:56:59.087Z,54.01
2023-04-27T07:59:28.965Z,52.07
2023-04-27T08:02:07.171Z,50.39
2023-04-27T08:04:42.795Z,49.30
2023-04-27T08:07:10.824Z,50.04
2023-04-27T08:09:37.920Z,50.51
2023-04-27T08:12:04.900Z,50.95
2023-04-27T08:14:33.965Z,49.83
2023-04-27T08:17:01.125Z,48.67
2023-04-27T08:19:28.111Z,49.06
2023-04-27T08:21:54.868Z,48.02
2023-04-27T08:24:21.809Z,47.81
2023-04-27T08:26:48.506Z,47.18
2023-04-27T08:29:26.281Z,45.81
2023-04-27T08:31:56.449Z,45.15
2023-04-27T08:34:23.910Z,45.97
2023-04-27T08:36:50.730Z,45.72
2023-04-27T08:39:18.151Z,45.58
2023-04-27T08:41:45.010Z,45.22
2023-04-27T08:44:11.891Z,43.94
2023-04-27T08:46:39.502Z,43.62
2023-04-27T08:49:07.682Z,41.68
2023-04-27T08:51:35.305Z,41.29
2023-04-27T08:54:02.439Z,40.90
2023-04-27T08:56:30.148Z,40.91
2023-04-27T08:58:58.135Z,40.57
2023-04-27T09:01:27.347Z,40.84
2023-04-27T09:04:02.235Z,40.45
2023-04-27T09:06:34.794Z,40.97
2023-04-27T09:09:02.552Z,41.18
2023-04-27T09:11:38.226Z,41.64
2023-04-27T09:14:23.080Z,41.51
2023-04-27T09:17:00.270Z,40.99
2023-04-27T09:19:28.956Z,41.39
2023-04-27T09:22:11.971Z,41.37
2023-04-27T09:24:38.857Z,41.56
2023-04-27T09:27:06.969Z,42.09
2023-04-27T09:29:37.952Z,42.35
2023-04-27T09:32:17.580Z,41.26
2023-04-27T09:34:44.581Z,40.97
2023-04-27T09:37:11.556Z,40.12
2023-04-27T09:39:38.397Z,39.94
2023-04-27T09:42:05.732Z,40.42
2023-04-27T09:44:32.946Z,40.42
2023-04-27T09:47:00.908Z,39.76
2023-04-27T09:49:29.265Z,38.99
2023-04-27T09:51:58.747Z,38.81
2023-04-27T09:54:29.197Z,38.91
2023-04-27T09:57:20.714Z,39.59
2023-04-27T10:00:10.804Z,40.12
2023-04-27T10:02:53.661Z,40.37
2023-04-27T10:05:26.861Z,38.85
2023-04-27T10:07:54.032Z,37.96
2023-04-27T10:10:20.778Z,36.46
2023-04-27T10:13:02.819Z,37.09
2023-04-27T10:15:30.128Z,36.73
2023-04-27T10:18:03.795Z,36.04
2023-04-27T10:20:32.517Z,35.69
2023-04-27T10:23:00.512Z,35.44
2023-04-27T10:25:29.458Z,35.17
2023-04-27T10:27:59.078Z,35.75
2023-04-27T10:30:37.297Z,36.01
2023-04-27T10:33:09.487Z,36.44
2023-04-27T10:35:38.376Z,36.24
2023-04-27T10:38:15.119Z,36.50
2023-04-27T10:40:43.792Z,35.78
2023-04-27T10:43:16.065Z,35.78
2023-04-27T10:45:43.608Z,34.90
2023-04-27T10:48:14.440Z,35.15
2023-04-27T10:50:42.507Z,35.13
2023-04-27T10:53:09.002Z,34.75
2023-04-27T10:55:36.320Z,33.45
2023-04-27T10:58:04.181Z,33.11
2023-04-27T11:00:37.607Z,33.50
2023-04-27T11:03:16.826Z,34.34
2023-04-27T11:05:45.294Z,34.97
2023-04-27T11:08:14.187Z,35.23
2023-04-27T11:10:44.286Z,35.23
2023-04-27T11:13:13.259Z,34.31
2023-04-27T11:15:54.110Z,33.93
2023-04-27T11:18:22.473Z,33.52
2023-04-27T11:20:50.924Z,33.58
2023-04-27T11:23:36.850Z,34.25
2023-04-27T11:26:10.846Z,33.80
2023-04-27T11:28:37.637Z,33.94
2023-04-27T11:31:06.958Z,32.42
2023-04-27T11:33:33.738Z,31.82
2023-04-27T11:36:00.684Z,30.82
2023-04-27T11:38:33.711Z,31.27
2023-04-27T11:41:07.567Z,31.43
2023-04-27T11:43:34.926Z,31.30
2023-04-27T11:46:06.971Z,30.44
2023-04-27T11:48:37.151Z,29.74
2023-04-27T11:51:04.278Z,29.61
2023-04-27T11:53:36.495Z,29.98
2023-04-27T11:56:08.040Z,30.33
2023-04-27T11:58:36.290Z,30.38
2023-04-27T12:01:04.278Z,30.67
2023-04-27T12:03:31.920Z,30.55
2023-04-27T12:06:11.491Z,30.29
2023-04-27T12:08:43.293Z,30.26
2023-04-27T12:11:10.165Z,30.60
2023-04-27T12:13:37.024Z,30.40
2023-04-27T12:16:03.854Z,30.85
2023-04-27T12:18:31.211Z,30.66
2023-04-27T12:21:01.518Z,30.34
2023-04-27T12:23:29.823Z,30.97
2023-04-27T12:25:56.754Z,29.09
2023-04-27T12:28:23.508Z,28.66
2023-04-27T12:30:50.480Z,27.94
2023-04-27T12:33:17.411Z,27.83
2023-04-27T12:35:44.229Z,27.15
2023-04-27T12:38:10.798Z,26.66
2023-04-27T12:40:37.916Z,26.58
2023-04-27T12:43:04.570Z,24.87
2023-04-27T12:45:31.577Z,24.27
2023-04-27T12:48:03.756Z,22.75
2023-04-27T12:50:32.014Z,21.02
2023-04-27T12:52:59.016Z,21.33
2023-04-27T12:55:33.640Z,20.89
2023-04-27T12:58:02.091Z,18.99
2023-04-27T13:00:29.755Z,17.68
2023-04-27T13:02:58.384Z,18.00
2023-04-27T13:05:25.057Z,18.40
2023-04-27T13:07:52.280Z,17.34
2023-04-27T13:10:18.820Z,17.67
2023-04-27T13:12:45.601Z,17.62
2023-04-27T13:15:12.215Z,17.31
2023-04-27T13:17:38.684Z,17.01
2023-04-27T13:20:07.251Z,15.47
2023-04-27T13:22:33.789Z,16.31
2023-04-27T13:25:00.861Z,16.94
2023-04-27T13:27:28.582Z,18.08
2023-04-27T13:29:55.929Z,18.18
2023-04-27T13:32:22.623Z,19.46
2023-04-27T13:34:49.397Z,20.36
2023-04-27T13:37:17.677Z,21.10
2023-04-27T13:39:44.426Z,21.36
2023-04-27T13:42:11.512Z,21.93
2023-04-27T13:44:38.222Z,22.54
2023-04-27T13:47:05.178Z,22.77
2023-04-27T13:49:32.316Z,22.57
2023-04-27T13:51:59.961Z,22.95
2023-04-27T13:54:27.301Z,22.46
2023-04-27T13:56:54.014Z,20.86
2023-04-27T13:59:21.673Z,20.41
2023-04-27T14:01:48.377Z,20.09
2023-04-27T14:04:15.375Z,20.27
2023-04-27T14:06:42.207Z,20.79
2023-04-27T14:09:09.317Z,21.30
2023-04-27T14:11:45.073Z,22.41
2023-04-27T14:14:19.509Z,22.45
2023-04-27T14:16:46.513Z,22.46
2023-04-27T14:19:16.117Z,21.40
2023-04-27T14:21:42.954Z,20.38
2023-04-27T14:24:09.558Z,20.02
2023-04-27T14:26:36.094Z,20.51
2023-04-27T14:29:02.695Z,20.75
2023-04-27T14:31:29.765Z,21.32
2023-04-27T14:33:57.389Z,21.34
2023-04-27T14:36:24.294Z,20.29
2023-04-27T14:38:50.691Z,18.94
2023-04-27T14:41:17.419Z,18.23
2023-04-27T14:43:46.185Z,17.31
2023-04-27T14:48:46.687Z,18.06
2023-04-27T14:51:16.375Z,17.80
2023-04-27T14:53:43.970Z,16.78
2023-04-27T14:56:11.423Z,16.32
2023-04-27T14:58:37.964Z,16.15
2023-04-27T15:01:04.996Z,15.18
2023-04-27T15:03:34.657Z,15.90
2023-04-27T15:06:02.118Z,16.62
2023-04-27T15:08:30.685Z,16.26
2023-04-27T15:10:59.963Z,16.21
2023-04-27T15:13:27.807Z,15.86
2023-04-27T15:15:56.455Z,15.23
2023-04-27T15:18:24.161Z,15.35
2023-04-27T15:20:58.797Z,15.22
2023-04-27T15:23:27.633Z,14.56
2023-04-27T15:25:56.418Z,14.09
2023-04-27T15:28:23.319Z,14.16
2023-04-27T15:30:50.117Z,14.02
2023-04-27T15:33:17.378Z,13.60
2023-04-27T15:35:43.999Z,13.50
2023-04-27T15:38:13.389Z,13.57
2023-04-27T15:40:40.423Z,13.55
2023-04-27T15:43:07.374Z,13.77
2023-04-27T15:45:34.205Z,13.60
2023-04-27T15:48:01.487Z,14.08
2023-04-27T15:50:28.634Z,14.11
2023-04-27T15:52:55.238Z,14.03
2023-04-27T15:55:22.311Z,14.14
2023-04-27T15:57:48.848Z,14.30
2023-04-27T16:00:16.950Z,14.98
2023-04-27T16:02:44.048Z,15.20
2023-04-27T16:05:10.784Z,15.10
2023-04-27T16:07:39.518Z,15.14
2023-04-27T16:10:07.063Z,15.99
2023-04-27T16:12:33.743Z,16.38
2023-04-27T16:15:00.871Z,16.68
2023-04-27T16:17:31.708Z,17.01
2023-04-27T16:19:58.692Z,17.33
2023-04-27T16:22:25.435Z,17.84
2023-04-27T16:24:52.244Z,18.17
2023-04-27T16:27:20.578Z,18.52
2023-04-27T16:29:47.588Z,19.29
2023-04-27T16:32:14.725Z,20.29
2023-04-27T16:34:41.635Z,20.80
2023-04-27T16:37:08.397Z,21.88
2023-04-27T16:39:35.716Z,21.88
2023-04-27T16:42:02.905Z,22.30
2023-04-27T16:44:29.699Z,23.66
2023-04-27T16:46:56.462Z,24.75
2023-04-27T16:49:23.630Z,25.38
2023-04-27T16:51:51.252Z,25.40
2023-04-27T16:54:18.132Z,25.22
2023-04-27T16:56:45.914Z,26.32
2023-04-27T16:59:12.815Z,26.93
2023-04-27T17:01:39.958Z,27.30
2023-04-27T17:04:06.653Z,27.62
2023-04-27T17:06:34.688Z,28.77
2023-04-27T17:09:01.660Z,29.82
2023-04-27T17:11:28.521Z,30.72
2023-04-27T17:13:55.502Z,31.37
2023-04-27T17:16:23.567Z,31.43
2023-04-27T17:18:50.125Z,31.63
2023-04-27T17:21:17.324Z,32.05
2023-04-27T17:23:46.582Z,32.55
2023-04-27T17:26:15.861Z,33.05
2023-04-27T17:28:42.498Z,33.00
2023-04-27T17:31:09.212Z,33.71
2023-04-27T17:33:36.252Z,34.11
2023-04-27T17:36:03.349Z,34.47
2023-04-27T17:38:29.993Z,35.19
2023-04-27T17:40:57.024Z,35.16
2023-04-27T17:43:23.836Z,35.11
2023-04-27T17:45:50.569Z,35.17
2023-04-27T17:48:17.710Z,35.35
2023-04-27T17:50:44.576Z,35.70
2023-04-27T17:53:11.316Z,35.74
2023-04-27T17:55:37.951Z,36.04
2023-04-27T17:58:06.275Z,35.72
2023-04-27T18:00:33.216Z,36.03
2023-04-27T18:03:00.583Z,35.91
2023-04-27T18:05:27.653Z,36.16
2023-04-27T18:07:54.421Z,36.13
2023-04-27T18:10:20.954Z,36.89
2023-04-27T18:12:47.525Z,36.88
2023-04-27T18:15:14.057Z,36.97
2023-04-27T18:17:41.383Z,37.23
2023-04-27T18:20:10.552Z,37.53
2023-04-27T18:22:40.755Z,37.73
2023-04-27T18:25:09.406Z,37.89
2023-04-27T18:27:37.671Z,38.00
2023-04-27T18:30:08.630Z,38.37
2023-04-27T18:32:35.528Z,38.80
2023-04-27T18:35:03.314Z,39.04
2023-04-27T18:37:29.957Z,39.50
2023-04-27T18:39:56.485Z,39.69
2023-04-27T18:42:23.543Z,40.27
2023-04-27T18:44:54.730Z,40.69
2023-04-27T18:47:21.720Z,40.82
2023-04-27T18:49:48.826Z,41.24
2023-04-27T18:52:15.431Z,41.39
2023-04-27T18:54:42.284Z,41.72
2023-04-27T18:57:09.023Z,41.79
2023-04-27T18:59:38.343Z,41.94
2023-04-27T19:02:06.260Z,42.12
2023-04-27T19:04:33.581Z,42.34
2023-04-27T19:07:00.202Z,42.23
2023-04-27T19:09:27.081Z,42.82
2023-04-27T19:12:02.472Z,43.07
2023-04-27T19:14:31.234Z,43.26
2023-04-27T19:16:57.994Z,43.46
2023-04-27T19:19:25.822Z,43.75
2023-04-27T19:21:52.606Z,43.90
2023-04-27T19:24:19.586Z,44.23
2023-04-27T19:26:47.700Z,44.15
2023-04-27T19:29:14.593Z,44.32
2023-04-27T19:31:41.592Z,44.61
2023-04-27T19:34:08.328Z,44.78
2023-04-27T19:36:35.127Z,45.20
2023-04-27T19:39:01.704Z,45.50
2023-04-27T19:41:28.371Z,45.66
2023-04-27T19:43:55.519Z,46.19
2023-04-27T19:46:22.166Z,46.43
2023-04-27T19:48:48.714Z,47.09
2023-04-27T19:51:15.322Z,47.23
2023-04-27T19:53:41.934Z,47.43
2023-04-27T19:56:08.583Z,47.49
2023-04-27T19:58:36.099Z,47.63
2023-04-27T20:01:03.956Z,47.40
2023-04-27T20:03:31.004Z,47.36
2023-04-27T20:05:58.306Z,47.67
2023-04-27T20:08:25.203Z,47.79
2023-04-27T20:10:51.848Z,47.87
2023-04-27T20:13:18.398Z,47.72
2023-04-27T20:15:45.218Z,48.18
2023-04-27T20:18:12.212Z,48.18
2023-04-27T20:20:39.048Z,48.23
2023-04-27T20:23:06.058Z,48.29
2023-04-27T20:25:32.954Z,48.58
2023-04-27T20:27:59.605Z,48.33
2023-04-27T20:30:27.704Z,48.50
2023-04-27T20:32:55.255Z,48.45
2023-04-27T20:35:22.242Z,48.65
2023-04-27T20:37:48.988Z,48.86
2023-04-27T20:40:17.992Z,49.06
2023-04-27T20:42:45.787Z,49.39
2023-04-27T20:45:13.275Z,49.37
2023-04-27T20:47:40.170Z,49.25
2023-04-27T20:50:07.809Z,49.35
2023-04-27T20:52:34.817Z,49.51
2023-04-27T20:55:02.432Z,49.70
2023-04-27T20:57:29.295Z,49.87
2023-04-27T20:59:56.087Z,50.02
2023-04-27T21:02:22.840Z,50.08
2023-04-27T21:04:49.548Z,50.07
2023-04-27T21:07:16.215Z,50.44
2023-04-27T21:09:43.110Z,50.69
2023-04-27T21:12:10.163Z,50.99
2023-04-27T21:14:37.386Z,50.76
2023-04-27T21:17:04.060Z,51.09
2023-04-27T21:19:30.761Z,51.47
2023-04-27T21:21:57.318Z,51.84
2023-04-27T21:24:24.204Z,52.06
2023-04-27T21:26:51.000Z,52.14
2023-04-27T21:29:17.702Z,51.88
2023-04-27T21:31:44.266Z,52.03
2023-04-27T21:34:10.882Z,52.53
2023-04-27T21:36:37.536Z,52.57
2023-04-27T21:39:04.179Z,52.83
2023-04-27T21:41:30.737Z,53.16
2023-04-27T21:43:57.244Z,53.21
2023-04-27T21:46:24.055Z,53.17
2023-04-27T21:48:50.784Z,53.11
2023-04-27T21:51:17.406Z,53.41
2023-04-27T21:53:43.889Z,53.43
2023-04-27T21:56:10.654Z,53.41
2023-04-27T21:58:37.275Z,53.56
2023-04-27T22:01:03.913Z,54.17
2023-04-27T22:03:30.850Z,54.11
2023-04-27T22:05:57.516Z,54.32
2023-04-27T22:08:24.086Z,54.40
2023-04-27T22:10:50.908Z,54.53
2023-04-27T22:13:19.383Z,54.66
2023-04-27T22:15:47.239Z,54.85
2023-04-27T22:18:15.344Z,55.12
2023-04-27T22:20:42.765Z,55.09
2023-04-27T22:23:09.934Z,55.46
2023-04-27T22:25:36.711Z,55.79
2023-04-27T22:28:03.559Z,55.90
2023-04-27T22:30:30.621Z,55.86
2023-04-27T22:32:57.696Z,55.97
2023-04-27T22:35:27.117Z,56.15
2023-04-27T22:37:59.201Z,56.08
2023-04-27T22:40:26.078Z,56.48
2023-04-27T22:42:54.052Z,56.43
2023-04-27T22:45:22.007Z,56.86
2023-04-27T22:47:49.435Z,57.23
2023-04-27T22:50:16.467Z,57.17
2023-04-27T22:52:43.234Z,57.28
2023-04-27T22:55:11.592Z,57.58
2023-04-27T22:57:38.685Z,58.00
2023-04-27T23:00:05.793Z,58.33
2023-04-27T23:02:32.492Z,58.62
2023-04-27T23:04:59.317Z,58.64
2023-04-27T23:07:25.975Z,58.97
2023-04-27T23:09:52.947Z,58.73
2023-04-27T23:12:20.796Z,58.86
2023-04-27T23:14:47.501Z,59.00
2023-04-27T23:17:17.003Z,59.25
2023-04-27T23:19:43.715Z,59.53
2023-04-27T23:22:10.466Z,59.45
2023-04-27T23:24:37.149Z,59.61
2023-04-27T23:27:03.983Z,59.59
2023-04-27T23:29:30.948Z,59.54
2023-04-27T23:32:04.619Z,60.08
2023-04-27T23:34:34.256Z,60.21
2023-04-27T23:37:00.922Z,60.38
2023-04-27T23:39:30.308Z,60.10
2023-04-27T23:41:56.927Z,60.08
2023-04-27T23:44:23.724Z,60.46
2023-04-27T23:46:50.493Z,60.49
2023-04-27T23:49:17.241Z,60.19
2023-04-27T23:51:43.785Z,60.37
2023-04-27T23:54:10.537Z,60.27
2023-04-27T23:56:36.978Z,60.06
2023-04-27T23:59:03.492Z,60.14
